createdAt,value
2018-07-24T00:00:05.831Z,13.57
2018-07-24T00:02:33.346Z,14.50
2018-07-24T00:05:01.710Z,14.20
2018-07-24T00:07:30.067Z,14.47
2018-07-24T00:09:59.973Z,13.73
2018-07-24T00:12:27.556Z,14.03
2018-07-24T00:14:55.893Z,14.67
2018-07-24T00:17:24.606Z,15.17
2018-07-24T00:19:52.734Z,13.60
2018-07-24T00:22:20.176Z,16.23
2018-07-24T00:24:47.766Z,15.13
2018-07-24T00:27:15.962Z,12.97
2018-07-24T00:29:43.476Z,14.40
2018-07-24T00:32:11.079Z,12.73
2018-07-24T00:34:38.676Z,14.80
2018-07-24T00:37:06.276Z,13.63
2018-07-24T00:39:33.976Z,13.77
2018-07-24T00:42:02.234Z,12.60
2018-07-24T00:44:30.928Z,13.17
2018-07-24T00:46:58.433Z,12.97
2018-07-24T00:49:25.931Z,14.40
2018-07-24T00:51:53.476Z,13.20
2018-07-24T00:54:21.022Z,13.37
2018-07-24T00:56:48.535Z,13.63
2018-07-24T00:59:16.244Z,14.83
2018-07-24T01:01:44.048Z,13.93
2018-07-24T01:04:11.677Z,12.93
2018-07-24T01:06:39.331Z,17.63
2018-07-24T01:09:09.096Z,14.00
2018-07-24T01:11:36.651Z,14.20
2018-07-24T01:14:04.099Z,15.53
2018-07-24T01:16:31.869Z,18.93
2018-07-24T01:18:59.599Z,19.93
2018-07-24T01:21:27.298Z,16.27
2018-07-24T01:23:55.336Z,21.50
2018-07-24T01:26:22.776Z,15.23
2018-07-24T01:28:50.311Z,16.50
2018-07-24T01:31:18.090Z,14.73
2018-07-24T01:33:45.576Z,15.53
2018-07-24T01:36:13.699Z,15.30
2018-07-24T01:38:41.239Z,15.23
2018-07-24T01:41:08.949Z,14.07
2018-07-24T01:43:37.196Z,14.00
2018-07-24T01:46:05.478Z,13.63
2018-07-24T01:48:32.952Z,13.87
2018-07-24T01:51:00.439Z,14.23
2018-07-24T01:53:28.083Z,13.47
2018-07-24T01:55:56.195Z,14.10
2018-07-24T01:58:23.761Z,12.50
2018-07-24T02:00:51.469Z,13.53
2018-07-24T02:03:20.522Z,13.23
2018-07-24T02:05:48.077Z,18.83
2018-07-24T02:08:15.609Z,14.80
2018-07-24T02:10:43.137Z,11.77
2018-07-24T02:13:10.740Z,12.83
2018-07-24T02:15:38.841Z,13.73
2018-07-24T02:18:06.340Z,15.20
2018-07-24T02:20:33.800Z,15.30
2018-07-24T02:23:01.339Z,13.00
2018-07-24T02:25:28.826Z,12.53
2018-07-24T02:27:56.358Z,12.67
2018-07-24T02:30:24.628Z,12.07
2018-07-24T02:32:52.162Z,13.70
2018-07-24T02:35:20.997Z,12.80
2018-07-24T02:37:48.492Z,13.30
2018-07-24T02:40:15.993Z,12.53
2018-07-24T02:42:43.466Z,13.43
2018-07-24T02:45:11.111Z,11.90
2018-07-24T02:47:38.679Z,11.93
2018-07-24T02:50:06.192Z,12.47
2018-07-24T02:52:33.813Z,11.80
2018-07-24T02:55:01.539Z,12.83
2018-07-24T02:57:29.127Z,11.50
2018-07-24T02:59:56.662Z,12.93
2018-07-24T03:02:24.536Z,11.37
2018-07-24T03:04:52.357Z,12.27
2018-07-24T03:07:19.845Z,12.27
2018-07-24T03:09:47.322Z,11.20
2018-07-24T03:12:15.048Z,10.17
2018-07-24T03:14:43.272Z,11.63
2018-07-24T03:17:10.827Z,10.97
2018-07-24T03:19:38.324Z,11.37
2018-07-24T03:22:07.365Z,11.53
2018-07-24T03:24:34.902Z,11.10
2018-07-24T03:27:02.465Z,11.27
2018-07-24T03:29:31.411Z,11.13
2018-07-24T03:31:59.509Z,10.37
2018-07-24T03:34:28.214Z,11.97
2018-07-24T03:36:55.956Z,10.83
2018-07-24T03:39:23.516Z,11.70
2018-07-24T03:41:52.322Z,10.80
2018-07-24T03:44:19.811Z,9.60
2018-07-24T03:46:47.297Z,9.73
2018-07-24T03:49:15.362Z,9.30
2018-07-24T03:51:42.887Z,9.20
2018-07-24T03:54:10.522Z,9.37
2018-07-24T03:56:38.708Z,9.67
2018-07-24T03:59:06.347Z,8.67
2018-07-24T04:01:33.987Z,8.97
2018-07-24T04:04:01.556Z,10.10
2018-07-24T04:06:29.177Z,8.23
2018-07-24T04:08:56.823Z,9.30
2018-07-24T04:11:24.468Z,9.40
2018-07-24T04:13:53.047Z,10.03
2018-07-24T04:16:20.639Z,8.57
2018-07-24T04:18:49.488Z,9.47
2018-07-24T04:21:18.664Z,8.17
2018-07-24T04:23:47.497Z,9.70
2018-07-24T04:26:16.593Z,8.00
2018-07-24T04:28:45.693Z,10.33
2018-07-24T04:31:14.858Z,8.03
2018-07-24T04:33:42.905Z,8.63
2018-07-24T04:36:11.081Z,8.17
2018-07-24T04:38:38.635Z,9.30
2018-07-24T04:41:06.812Z,9.47
2018-07-24T04:43:34.434Z,7.13
2018-07-24T04:46:01.941Z,8.13
2018-07-24T04:48:30.078Z,8.40
2018-07-24T04:50:57.657Z,8.83
2018-07-24T04:53:25.462Z,7.20
2018-07-24T04:55:53.110Z,8.97
2018-07-24T04:58:21.239Z,9.87
2018-07-24T05:00:48.728Z,6.80
2018-07-24T05:03:16.378Z,6.67
2018-07-24T05:05:43.835Z,8.20
2018-07-24T05:08:11.391Z,7.30
2018-07-24T05:10:39.059Z,7.13
2018-07-24T05:13:06.550Z,16.20
2018-07-24T05:15:34.069Z,21.27
2018-07-24T05:18:01.694Z,15.70
2018-07-24T05:20:30.162Z,12.60
2018-07-24T05:22:57.749Z,15.03
2018-07-24T05:25:25.132Z,15.70
2018-07-24T05:27:53.213Z,12.53
2018-07-24T05:30:20.620Z,12.10
2018-07-24T05:32:48.300Z,7.63
2018-07-24T05:35:15.848Z,7.57
2018-07-24T05:37:43.412Z,10.00
2018-07-24T05:40:11.050Z,7.10
2018-07-24T05:42:39.595Z,27.20
2018-07-24T05:45:07.158Z,10.50
2018-07-24T05:47:34.659Z,8.80
2018-07-24T05:50:02.791Z,9.83
2018-07-24T05:52:31.099Z,8.03
2018-07-24T05:54:58.754Z,8.50
2018-07-24T05:57:26.331Z,8.90
2018-07-24T05:59:53.841Z,8.83
2018-07-24T06:02:21.435Z,6.90
2018-07-24T06:04:49.139Z,10.67
2018-07-24T06:07:17.309Z,10.57
2018-07-24T06:09:44.878Z,14.33
2018-07-24T06:12:12.517Z,15.63
2018-07-24T06:14:40.718Z,10.90
2018-07-24T06:17:08.349Z,12.40
2018-07-24T06:19:35.784Z,10.67
2018-07-24T06:22:05.820Z,15.03
2018-07-24T06:24:33.470Z,8.53
2018-07-24T06:27:01.019Z,9.87
2018-07-24T06:29:28.669Z,13.03
2018-07-24T06:31:56.859Z,7.57
2018-07-24T06:34:24.370Z,8.20
2018-07-24T06:36:51.896Z,6.50
2018-07-24T06:39:19.596Z,12.47
2018-07-24T06:41:47.119Z,10.30
2018-07-24T06:44:14.749Z,7.20
2018-07-24T06:46:42.552Z,7.43
2018-07-24T06:49:10.243Z,9.80
2018-07-24T06:51:37.783Z,7.03
2018-07-24T06:54:06.561Z,6.70
2018-07-24T06:56:34.184Z,8.07
2018-07-24T06:59:02.836Z,7.60
2018-07-24T07:01:31.010Z,9.77
2018-07-24T07:03:58.713Z,10.47
2018-07-24T07:06:26.582Z,12.47
2018-07-24T07:08:59.806Z,9.70
2018-07-24T07:11:27.541Z,6.03
2018-07-24T07:13:55.046Z,7.23
2018-07-24T07:16:22.696Z,9.13
2018-07-24T07:18:50.302Z,6.80
2018-07-24T07:21:18.392Z,6.70
2018-07-24T07:23:45.925Z,7.00
2018-07-24T07:26:13.521Z,7.60
2018-07-24T07:28:41.061Z,8.70
2018-07-24T07:31:08.828Z,7.03
2018-07-24T07:33:36.516Z,6.97
2018-07-24T07:36:04.352Z,8.20
2018-07-24T07:38:31.958Z,9.27
2018-07-24T07:40:59.544Z,8.90
2018-07-24T07:43:28.325Z,7.97
2018-07-24T07:45:57.193Z,7.00
2018-07-24T07:48:24.598Z,8.20
2018-07-24T07:50:52.114Z,10.73
2018-07-24T07:53:19.764Z,8.37
2018-07-24T08:08:51.867Z,8.83
2018-07-24T08:11:19.556Z,16.97
2018-07-24T08:13:47.063Z,9.73
2018-07-24T08:16:14.598Z,5.87
2018-07-24T08:18:42.932Z,6.73
2018-07-24T08:21:10.664Z,6.87
2018-07-24T08:23:38.219Z,7.93
2018-07-24T08:26:05.805Z,11.33
2018-07-24T08:28:33.728Z,5.57
2018-07-24T08:31:02.377Z,6.97
2018-07-24T08:33:30.657Z,6.10
2018-07-24T08:35:58.146Z,5.57
2018-07-24T08:38:25.680Z,7.43
2018-07-24T08:40:53.332Z,6.00
2018-07-24T08:43:21.047Z,5.87
2018-07-24T08:45:49.848Z,5.77
2018-07-24T08:48:17.796Z,5.40
2018-07-24T08:50:46.034Z,5.60
2018-07-24T08:53:14.876Z,6.10
2018-07-24T08:55:42.468Z,7.77
2018-07-24T08:58:09.914Z,11.37
2018-07-24T09:00:37.875Z,6.13
2018-07-24T09:03:06.140Z,5.40
2018-07-24T09:05:34.367Z,6.30
2018-07-24T09:08:02.053Z,5.60
2018-07-24T09:10:34.226Z,5.33
2018-07-24T09:13:02.650Z,5.07
2018-07-24T09:15:31.837Z,5.43
2018-07-24T09:18:00.689Z,5.10
2018-07-24T09:20:29.276Z,5.27
2018-07-24T09:22:57.494Z,5.20
2018-07-24T09:25:26.176Z,8.90
2018-07-24T09:27:54.568Z,10.23
2018-07-24T09:30:22.955Z,10.10
2018-07-24T09:32:50.429Z,6.23
2018-07-24T09:35:19.547Z,14.80
2018-07-24T09:37:47.075Z,5.87
2018-07-24T09:40:14.611Z,9.70
2018-07-24T09:42:43.675Z,7.50
2018-07-24T09:45:13.007Z,10.23
2018-07-24T09:47:40.674Z,10.90
2018-07-24T09:50:08.964Z,9.10
2018-07-24T09:52:37.834Z,8.10
2018-07-24T09:55:05.557Z,6.37
2018-07-24T09:57:33.994Z,5.70
2018-07-24T10:00:02.197Z,4.90
2018-07-24T10:02:29.909Z,6.10
2018-07-24T10:04:59.486Z,7.30
2018-07-24T10:07:28.720Z,4.93
2018-07-24T10:09:56.264Z,13.73
2018-07-24T10:12:23.974Z,5.53
2018-07-24T10:14:51.606Z,5.90
2018-07-24T10:17:20.795Z,4.83
2018-07-24T10:19:49.429Z,6.47
2018-07-24T10:22:17.547Z,6.80
2018-07-24T10:24:47.597Z,6.53
2018-07-24T10:27:19.120Z,6.43
2018-07-24T10:29:49.687Z,5.47
2018-07-24T10:32:17.301Z,7.03
2018-07-24T10:34:46.579Z,5.20
2018-07-24T10:37:14.942Z,5.20
2018-07-24T10:39:45.504Z,8.47
2018-07-24T10:42:15.881Z,5.73
2018-07-24T10:44:44.315Z,5.67
2018-07-24T10:47:12.424Z,5.63
2018-07-24T10:49:40.074Z,6.00
2018-07-24T10:52:07.736Z,6.77
2018-07-24T10:54:35.404Z,5.43
2018-07-24T10:57:03.671Z,6.47
2018-07-24T10:59:31.768Z,5.03
2018-07-24T11:01:59.252Z,5.80
2018-07-24T11:04:26.780Z,5.27
2018-07-24T11:06:54.905Z,5.93
2018-07-24T11:09:23.401Z,5.57
2018-07-24T11:11:51.649Z,5.50
2018-07-24T11:14:19.362Z,4.77
2018-07-24T11:16:47.496Z,6.33
2018-07-24T11:19:15.686Z,6.57
2018-07-24T11:21:45.149Z,5.60
2018-07-24T11:24:13.892Z,5.20
2018-07-24T11:26:42.106Z,5.63
2018-07-24T11:29:10.214Z,6.60
2018-07-24T11:31:39.145Z,5.53
2018-07-24T11:34:06.806Z,4.47
2018-07-24T11:36:34.615Z,5.70
2018-07-24T11:39:02.714Z,8.67
2018-07-24T11:41:30.265Z,5.27
2018-07-24T11:43:58.607Z,5.20
2018-07-24T11:46:27.056Z,5.20
2018-07-24T11:48:55.402Z,6.47
2018-07-24T11:51:23.631Z,5.60
2018-07-24T11:53:51.116Z,5.90
2018-07-24T11:56:19.236Z,6.33
2018-07-24T11:58:47.612Z,5.53
2018-07-24T12:01:17.154Z,8.37
2018-07-24T12:03:44.898Z,5.60
2018-07-24T12:06:13.119Z,6.00
2018-07-24T12:08:41.352Z,5.80
2018-07-24T12:11:08.971Z,6.93
2018-07-24T12:13:37.335Z,7.03
2018-07-24T12:16:05.243Z,6.57
2018-07-24T12:18:33.509Z,6.03
2018-07-24T12:21:01.625Z,7.00
2018-07-24T12:23:29.222Z,6.07
2018-07-24T12:25:57.257Z,6.13
2018-07-24T12:28:25.297Z,5.63
2018-07-24T12:30:53.043Z,5.83
2018-07-24T12:33:20.841Z,5.57
2018-07-24T12:35:48.479Z,7.37
2018-07-24T12:38:16.644Z,5.30
2018-07-24T12:40:44.230Z,6.90
2018-07-24T12:43:11.770Z,6.27
2018-07-24T12:45:39.915Z,8.47
2018-07-24T12:48:08.185Z,6.83
2018-07-24T12:50:36.979Z,5.43
2018-07-24T12:53:04.617Z,7.57
2018-07-24T12:55:32.634Z,6.83
2018-07-24T12:58:00.355Z,6.13
2018-07-24T13:00:28.065Z,5.90
2018-07-24T13:02:56.277Z,5.90
2018-07-24T13:05:24.461Z,8.23
2018-07-24T13:07:53.375Z,6.80
2018-07-24T13:10:20.885Z,5.80
2018-07-24T13:12:48.629Z,9.40
2018-07-24T13:15:16.322Z,5.90
2018-07-24T13:17:43.894Z,6.20
2018-07-24T13:20:12.151Z,5.70
2018-07-24T13:22:39.751Z,5.43
2018-07-24T13:25:07.360Z,6.67
2018-07-24T13:27:35.460Z,5.87
2018-07-24T13:30:04.881Z,6.73
2018-07-24T13:32:34.252Z,5.77
2018-07-24T13:35:02.361Z,7.07
2018-07-24T13:37:30.063Z,8.20
2018-07-24T13:39:59.615Z,10.90
2018-07-24T13:42:27.372Z,8.63
2018-07-24T13:44:57.216Z,8.10
2018-07-24T13:47:24.732Z,12.33
2018-07-24T13:49:52.628Z,9.63
2018-07-24T13:52:20.144Z,10.13
2018-07-24T13:54:47.838Z,7.40
2018-07-24T13:57:15.332Z,6.80
2018-07-24T13:59:43.934Z,9.40
2018-07-24T14:02:11.456Z,8.60
2018-07-24T14:04:39.659Z,5.57
2018-07-24T14:07:08.072Z,5.97
2018-07-24T14:09:35.721Z,6.17
2018-07-24T14:12:03.300Z,7.07
2018-07-24T14:14:31.813Z,7.43
2018-07-24T14:16:59.258Z,6.97
2018-07-24T14:19:26.893Z,6.30
2018-07-24T14:21:55.080Z,8.60
2018-07-24T14:24:22.676Z,6.03
2018-07-24T14:26:50.276Z,6.30
2018-07-24T14:29:17.873Z,6.60
2018-07-24T14:31:46.367Z,7.23
2018-07-24T14:34:15.218Z,6.47
2018-07-24T14:36:42.838Z,6.53
2018-07-24T14:39:12.073Z,6.13
2018-07-24T14:41:39.784Z,6.83
2018-07-24T14:44:07.543Z,6.77
2018-07-24T14:46:35.613Z,7.17
2018-07-24T14:49:03.242Z,7.50
2018-07-24T14:51:31.495Z,6.37
2018-07-24T14:53:59.225Z,7.67
2018-07-24T14:56:26.838Z,6.73
2018-07-24T14:58:54.651Z,7.10
2018-07-24T15:01:22.247Z,6.77
2018-07-24T15:03:49.766Z,7.90
2018-07-24T15:06:17.406Z,6.30
2018-07-24T15:08:45.322Z,7.40
2018-07-24T15:11:13.044Z,7.20
2018-07-24T15:13:41.527Z,6.40
2018-07-24T15:16:09.084Z,6.17
2018-07-24T15:18:36.630Z,6.73
2018-07-24T15:21:04.986Z,8.03
2018-07-24T15:23:33.256Z,6.57
2018-07-24T15:26:02.388Z,6.93
2018-07-24T15:28:30.738Z,6.87
2018-07-24T15:30:58.337Z,7.87
2018-07-24T15:33:25.926Z,6.50
2018-07-24T15:35:53.565Z,7.07
2018-07-24T15:38:21.200Z,6.70
2018-07-24T15:40:50.381Z,6.33
2018-07-24T15:43:18.507Z,8.80
2018-07-24T15:45:46.832Z,7.23
2018-07-24T15:48:14.589Z,12.37
2018-07-24T15:50:42.055Z,8.23
2018-07-24T15:53:09.624Z,9.13
2018-07-24T15:55:37.182Z,6.80
2018-07-24T15:58:04.790Z,7.30
2018-07-24T16:00:32.564Z,7.37
2018-07-24T16:03:00.964Z,8.87
2018-07-24T16:05:28.542Z,7.13
2018-07-24T16:07:56.189Z,7.13
2018-07-24T16:10:24.129Z,7.23
2018-07-24T16:12:51.599Z,9.00
2018-07-24T16:15:19.163Z,6.63
2018-07-24T16:17:46.788Z,7.87
2018-07-24T16:20:14.303Z,6.70
2018-07-24T16:22:41.875Z,8.50
2018-07-24T16:25:09.449Z,9.30
2018-07-24T16:27:37.657Z,7.03
2018-07-24T16:30:05.323Z,6.63
2018-07-24T16:32:32.771Z,8.43
2018-07-24T16:35:00.248Z,7.57
2018-07-24T16:37:27.864Z,7.50
2018-07-24T16:39:56.126Z,7.40
2018-07-24T16:42:23.744Z,7.93
2018-07-24T16:44:51.942Z,7.53
2018-07-24T16:47:20.016Z,10.10
2018-07-24T16:49:47.497Z,8.53
2018-07-24T16:52:15.053Z,8.40
2018-07-24T16:54:43.130Z,8.70
2018-07-24T16:57:10.803Z,7.43
2018-07-24T16:59:39.664Z,7.80
2018-07-24T17:02:08.033Z,7.57
2018-07-24T17:04:35.968Z,7.20
2018-07-24T17:07:04.874Z,7.70
2018-07-24T17:09:32.684Z,8.37
2018-07-24T17:12:02.256Z,8.50
2018-07-24T17:14:34.111Z,7.73
2018-07-24T17:17:02.376Z,7.73
2018-07-24T17:19:29.930Z,8.40
2018-07-24T17:21:57.652Z,7.87
2018-07-24T17:24:27.207Z,6.87
2018-07-24T17:26:55.352Z,7.13
2018-07-24T17:29:23.053Z,9.20
2018-07-24T17:31:51.453Z,11.10
2018-07-24T17:34:23.716Z,8.20
2018-07-24T17:36:53.566Z,8.60
2018-07-24T17:39:25.591Z,8.50
2018-07-24T17:41:57.126Z,8.77
2018-07-24T17:44:24.668Z,9.20
2018-07-24T17:46:52.810Z,7.73
2018-07-24T17:49:21.120Z,8.33
2018-07-24T17:51:48.738Z,12.40
2018-07-24T17:54:16.513Z,8.67
2018-07-24T17:56:44.843Z,12.83
2018-07-24T17:59:12.435Z,8.67
2018-07-24T18:01:39.995Z,8.33
2018-07-24T18:04:07.724Z,8.00
2018-07-24T18:06:35.310Z,9.70
2018-07-24T18:09:03.979Z,8.97
2018-07-24T18:11:32.669Z,10.90
2018-07-24T18:14:00.236Z,7.57
2018-07-24T18:16:27.780Z,7.90
2018-07-24T18:18:55.238Z,8.83
2018-07-24T18:21:22.735Z,10.13
2018-07-24T18:23:50.356Z,8.77
2018-07-24T18:26:18.119Z,9.63
2018-07-24T18:28:46.440Z,10.10
2018-07-24T18:31:13.943Z,8.07
2018-07-24T18:33:42.096Z,8.23
2018-07-24T18:36:09.751Z,8.57
2018-07-24T18:38:37.339Z,8.70
2018-07-24T18:41:05.145Z,9.10
2018-07-24T18:43:32.631Z,8.90
2018-07-24T18:46:00.059Z,9.73
2018-07-24T18:48:27.659Z,13.30
2018-07-24T18:50:55.331Z,11.03
2018-07-24T18:53:23.126Z,9.93
2018-07-24T18:55:50.957Z,10.90
2018-07-24T18:58:18.463Z,11.27
2018-07-24T19:00:46.230Z,11.70
2018-07-24T19:03:13.715Z,11.97
2018-07-24T19:05:41.965Z,10.60
2018-07-24T19:08:10.116Z,10.43
2018-07-24T19:10:38.291Z,10.20
2018-07-24T19:13:06.019Z,9.83
2018-07-24T19:15:33.659Z,11.53
2018-07-24T19:18:01.211Z,10.63
2018-07-24T19:20:28.940Z,10.93
2018-07-24T19:22:56.608Z,10.43
2018-07-24T19:25:24.155Z,9.90
2018-07-24T19:27:52.142Z,10.77
2018-07-24T19:30:21.342Z,10.63
2018-07-24T19:32:49.031Z,10.80
2018-07-24T19:35:16.688Z,10.90
2018-07-24T19:37:44.912Z,9.70
2018-07-24T19:40:12.644Z,9.50
2018-07-24T19:42:40.339Z,9.57
2018-07-24T19:45:09.005Z,9.60
2018-07-24T19:47:38.070Z,10.07
2018-07-24T19:50:05.754Z,9.90
2018-07-24T19:52:33.469Z,10.00
2018-07-24T19:55:01.115Z,9.13
2018-07-24T19:57:28.943Z,8.40
2018-07-24T19:59:57.022Z,9.50
2018-07-24T20:02:24.959Z,9.37
2018-07-24T20:04:52.508Z,10.17
2018-07-24T20:07:20.087Z,10.13
2018-07-24T20:09:49.097Z,9.40
2018-07-24T20:12:17.048Z,10.50
2018-07-24T20:14:45.319Z,10.67
2018-07-24T20:17:12.916Z,8.20
2018-07-24T20:19:41.114Z,10.97
2018-07-24T20:22:08.684Z,9.67
2018-07-24T20:24:37.420Z,8.90
2018-07-24T20:27:05.389Z,11.67
2018-07-24T20:29:33.489Z,8.90
2018-07-24T20:32:01.108Z,10.17
2018-07-24T20:34:29.722Z,10.90
2018-07-24T20:39:00.005Z,9.30
2018-07-24T20:41:28.486Z,9.23
2018-07-24T20:43:58.704Z,9.43
2018-07-24T20:46:26.472Z,9.23
2018-07-24T20:48:54.504Z,8.73
2018-07-24T20:51:22.143Z,15.10
2018-07-24T20:53:49.761Z,9.33
2018-07-24T20:56:17.438Z,8.33
2018-07-24T20:58:45.106Z,8.20
2018-07-24T21:01:12.872Z,8.10
2018-07-24T21:03:40.465Z,11.40
2018-07-24T21:06:08.306Z,12.63
2018-07-24T21:08:35.892Z,11.40
2018-07-24T21:11:04.240Z,8.77
2018-07-24T21:13:31.778Z,9.97
2018-07-24T21:15:59.528Z,8.70
2018-07-24T21:18:27.199Z,8.73
2018-07-24T21:20:54.878Z,10.00
2018-07-24T21:23:22.448Z,9.80
2018-07-24T21:25:50.098Z,8.33
2018-07-24T21:28:18.673Z,9.03
2018-07-24T21:30:46.254Z,7.47
2018-07-24T21:33:13.804Z,8.40
2018-07-24T21:35:41.467Z,8.00
2018-07-24T21:38:09.176Z,8.50
2018-07-24T21:40:37.536Z,8.10
2018-07-24T21:43:05.444Z,7.70
2018-07-24T21:45:33.500Z,8.63
2018-07-24T21:48:01.226Z,16.67
2018-07-24T21:50:29.761Z,10.43
2018-07-24T21:52:57.261Z,9.53
2018-07-24T21:55:24.873Z,8.20
2018-07-24T21:57:52.647Z,8.43
2018-07-24T22:00:20.423Z,8.70
2018-07-24T22:02:48.549Z,8.70
2018-07-24T22:05:16.148Z,7.37
2018-07-24T22:07:44.105Z,7.30
2018-07-24T22:10:17.286Z,8.67
2018-07-24T22:12:44.942Z,9.23
2018-07-24T22:15:30.417Z,8.27
2018-07-24T22:17:58.011Z,12.43
2018-07-24T22:20:25.575Z,12.33
2018-07-24T22:22:53.647Z,9.13
2018-07-24T22:25:21.249Z,11.47
2018-07-24T22:27:48.857Z,8.17
2018-07-24T22:30:16.733Z,8.70
2018-07-24T22:32:44.409Z,7.73
2018-07-24T22:35:12.464Z,8.93
2018-07-24T22:37:40.200Z,8.10
2018-07-24T22:40:09.894Z,8.40
2018-07-24T22:42:37.593Z,7.90
2018-07-24T22:45:06.023Z,9.00
2018-07-24T22:47:33.685Z,8.80
2018-07-24T22:50:01.249Z,7.97
2018-07-24T22:52:29.389Z,8.13
2018-07-24T22:54:57.589Z,8.47
2018-07-24T22:57:25.253Z,9.03
2018-07-24T22:59:52.850Z,8.80
2018-07-24T23:02:20.446Z,7.80
2018-07-24T23:04:48.093Z,8.33
2018-07-24T23:07:15.614Z,8.70
2018-07-24T23:09:43.225Z,10.67
2018-07-24T23:12:11.743Z,11.60
2018-07-24T23:14:40.165Z,9.80
2018-07-24T23:17:08.824Z,8.63
2018-07-24T23:19:36.402Z,7.97
2018-07-24T23:22:04.050Z,9.83
2018-07-24T23:24:31.654Z,8.33
2018-07-24T23:26:59.253Z,8.20
2018-07-24T23:29:26.800Z,8.30
2018-07-24T23:31:54.377Z,8.03
2018-07-24T23:34:21.924Z,7.87
2018-07-24T23:36:50.150Z,7.57
2018-07-24T23:39:17.942Z,8.07
2018-07-24T23:41:45.558Z,8.30
2018-07-24T23:44:13.062Z,9.07
2018-07-24T23:46:41.213Z,9.33
2018-07-24T23:49:08.765Z,11.53
2018-07-24T23:51:36.174Z,11.87
2018-07-24T23:54:03.780Z,7.90
2018-07-24T23:56:31.341Z,8.77
2018-07-24T23:58:58.887Z,8.13
